sensor_id;sensor_type;location;lat;lon;timestamp;temperature;humidity
51215;DHT22;63849;47.546;19.254;2023-02-04T00:02:23;3.60;83.70
51215;DHT22;63849;47.546;19.254;2023-02-04T00:04:49;3.60;83.80
51215;DHT22;63849;47.546;19.254;2023-02-04T00:07:15;3.70;83.60
51215;DHT22;63849;47.546;19.254;2023-02-04T00:09:43;3.70;83.10
51215;DHT22;63849;47.546;19.254;2023-02-04T00:12:14;3.80;83.50
51215;DHT22;63849;47.546;19.254;2023-02-04T00:14:40;3.80;83.40
51215;DHT22;63849;47.546;19.254;2023-02-04T00:17:06;3.80;83.10
51215;DHT22;63849;47.546;19.254;2023-02-04T00:19:32;3.80;83.30
51215;DHT22;63849;47.546;19.254;2023-02-04T00:21:58;3.80;83.30
51215;DHT22;63849;47.546;19.254;2023-02-04T00:24:24;3.80;83.20
51215;DHT22;63849;47.546;19.254;2023-02-04T00:26:49;3.90;82.90
51215;DHT22;63849;47.546;19.254;2023-02-04T00:29:15;3.80;83.30
51215;DHT22;63849;47.546;19.254;2023-02-04T00:31:41;3.80;83.40
51215;DHT22;63849;47.546;19.254;2023-02-04T00:34:07;3.80;83.20
51215;DHT22;63849;47.546;19.254;2023-02-04T00:36:32;3.80;83.10
51215;DHT22;63849;47.546;19.254;2023-02-04T00:38:58;3.80;83.10
51215;DHT22;63849;47.546;19.254;2023-02-04T00:41:24;3.80;83.10
51215;DHT22;63849;47.546;19.254;2023-02-04T00:43:49;3.80;83.10
51215;DHT22;63849;47.546;19.254;2023-02-04T00:46:15;3.90;83.00
51215;DHT22;63849;47.546;19.254;2023-02-04T00:48:41;3.90;83.00
51215;DHT22;63849;47.546;19.254;2023-02-04T00:51:07;3.80;83.40
51215;DHT22;63849;47.546;19.254;2023-02-04T00:53:32;3.80;83.60
51215;DHT22;63849;47.546;19.254;2023-02-04T00:55:58;3.80;83.60
51215;DHT22;63849;47.546;19.254;2023-02-04T00:58:24;3.80;83.40
51215;DHT22;63849;47.546;19.254;2023-02-04T01:00:49;3.80;83.50
51215;DHT22;63849;47.546;19.254;2023-02-04T01:03:15;3.80;83.40
51215;DHT22;63849;47.546;19.254;2023-02-04T01:05:41;3.80;83.70
51215;DHT22;63849;47.546;19.254;2023-02-04T01:08:06;3.90;83.20
51215;DHT22;63849;47.546;19.254;2023-02-04T01:10:32;3.90;83.00
51215;DHT22;63849;47.546;19.254;2023-02-04T01:12:58;3.90;83.20
51215;DHT22;63849;47.546;19.254;2023-02-04T01:15:23;3.90;83.20
51215;DHT22;63849;47.546;19.254;2023-02-04T01:17:49;4.00;83.00
51215;DHT22;63849;47.546;19.254;2023-02-04T01:20:15;4.00;83.10
51215;DHT22;63849;47.546;19.254;2023-02-04T01:22:41;4.00;83.20
51215;DHT22;63849;47.546;19.254;2023-02-04T01:25:07;4.00;82.70
51215;DHT22;63849;47.546;19.254;2023-02-04T01:27:33;4.00;83.00
51215;DHT22;63849;47.546;19.254;2023-02-04T01:29:58;4.00;83.00
51215;DHT22;63849;47.546;19.254;2023-02-04T01:32:24;3.90;83.10
51215;DHT22;63849;47.546;19.254;2023-02-04T01:34:50;4.10;82.20
51215;DHT22;63849;47.546;19.254;2023-02-04T01:37:16;4.10;82.60
51215;DHT22;63849;47.546;19.254;2023-02-04T01:39:42;4.20;82.00
51215;DHT22;63849;47.546;19.254;2023-02-04T01:42:08;4.20;82.10
51215;DHT22;63849;47.546;19.254;2023-02-04T01:44:34;4.20;82.10
51215;DHT22;63849;47.546;19.254;2023-02-04T01:47:00;4.20;81.90
51215;DHT22;63849;47.546;19.254;2023-02-04T01:49:25;4.20;82.00
51215;DHT22;63849;47.546;19.254;2023-02-04T01:51:51;4.20;82.00
51215;DHT22;63849;47.546;19.254;2023-02-04T01:54:17;4.20;81.90
51215;DHT22;63849;47.546;19.254;2023-02-04T01:56:46;4.30;82.10
51215;DHT22;63849;47.546;19.254;2023-02-04T01:59:15;4.30;81.60
51215;DHT22;63849;47.546;19.254;2023-02-04T02:01:47;4.30;81.90
51215;DHT22;63849;47.546;19.254;2023-02-04T02:04:19;4.20;82.20
51215;DHT22;63849;47.546;19.254;2023-02-04T02:06:48;4.20;82.20
51215;DHT22;63849;47.546;19.254;2023-02-04T02:09:16;4.30;82.10
51215;DHT22;63849;47.546;19.254;2023-02-04T02:11:41;4.20;82.30
51215;DHT22;63849;47.546;19.254;2023-02-04T02:14:07;4.20;82.30
51215;DHT22;63849;47.546;19.254;2023-02-04T02:16:33;4.20;82.10
51215;DHT22;63849;47.546;19.254;2023-02-04T02:18:59;4.20;82.30
51215;DHT22;63849;47.546;19.254;2023-02-04T02:21:37;4.20;82.40
51215;DHT22;63849;47.546;19.254;2023-02-04T02:24:28;4.30;82.10
51215;DHT22;63849;47.546;19.254;2023-02-04T02:26:56;4.30;81.50
51215;DHT22;63849;47.546;19.254;2023-02-04T02:29:22;4.30;81.20
51215;DHT22;63849;47.546;19.254;2023-02-04T02:31:49;4.20;81.50
51215;DHT22;63849;47.546;19.254;2023-02-04T02:34:15;4.20;81.80
51215;DHT22;63849;47.546;19.254;2023-02-04T02:36:41;4.30;81.40
51215;DHT22;63849;47.546;19.254;2023-02-04T02:39:07;4.30;81.60
51215;DHT22;63849;47.546;19.254;2023-02-04T02:41:33;4.30;81.50
51215;DHT22;63849;47.546;19.254;2023-02-04T02:44:00;4.20;81.90
51215;DHT22;63849;47.546;19.254;2023-02-04T02:46:26;4.20;81.90
51215;DHT22;63849;47.546;19.254;2023-02-04T02:48:52;4.10;82.50
51215;DHT22;63849;47.546;19.254;2023-02-04T02:51:18;4.10;82.40
51215;DHT22;63849;47.546;19.254;2023-02-04T02:53:45;4.10;82.60
51215;DHT22;63849;47.546;19.254;2023-02-04T02:56:12;4.10;83.00
51215;DHT22;63849;47.546;19.254;2023-02-04T02:58:38;4.10;83.20
51215;DHT22;63849;47.546;19.254;2023-02-04T03:01:06;4.20;83.30
51215;DHT22;63849;47.546;19.254;2023-02-04T03:03:35;4.30;83.20
51215;DHT22;63849;47.546;19.254;2023-02-04T03:06:31;4.30;82.80
51215;DHT22;63849;47.546;19.254;2023-02-04T03:08:57;4.30;83.10
51215;DHT22;63849;47.546;19.254;2023-02-04T03:11:22;4.30;83.20
51215;DHT22;63849;47.546;19.254;2023-02-04T03:13:51;4.30;83.00
51215;DHT22;63849;47.546;19.254;2023-02-04T03:16:17;4.30;83.20
51215;DHT22;63849;47.546;19.254;2023-02-04T03:18:43;4.30;83.10
51215;DHT22;63849;47.546;19.254;2023-02-04T03:21:09;4.30;83.00
51215;DHT22;63849;47.546;19.254;2023-02-04T03:23:35;4.30;83.20
51215;DHT22;63849;47.546;19.254;2023-02-04T03:26:02;4.30;83.00
51215;DHT22;63849;47.546;19.254;2023-02-04T03:28:29;4.30;83.20
51215;DHT22;63849;47.546;19.254;2023-02-04T03:30:56;4.30;83.10
51215;DHT22;63849;47.546;19.254;2023-02-04T03:33:23;4.30;83.30
51215;DHT22;63849;47.546;19.254;2023-02-04T03:35:51;4.30;83.40
51215;DHT22;63849;47.546;19.254;2023-02-04T03:38:17;4.30;83.30
51215;DHT22;63849;47.546;19.254;2023-02-04T03:40:43;4.30;83.30
51215;DHT22;63849;47.546;19.254;2023-02-04T03:43:09;4.30;83.70
51215;DHT22;63849;47.546;19.254;2023-02-04T03:45:35;4.30;83.80
51215;DHT22;63849;47.546;19.254;2023-02-04T03:48:00;4.30;84.00
51215;DHT22;63849;47.546;19.254;2023-02-04T03:50:26;4.20;84.20
51215;DHT22;63849;47.546;19.254;2023-02-04T03:52:52;4.20;84.10
51215;DHT22;63849;47.546;19.254;2023-02-04T03:55:18;4.20;84.30
51215;DHT22;63849;47.546;19.254;2023-02-04T03:57:44;4.30;84.40
51215;DHT22;63849;47.546;19.254;2023-02-04T04:00:11;4.20;84.50
51215;DHT22;63849;47.546;19.254;2023-02-04T04:02:36;4.30;84.50
51215;DHT22;63849;47.546;19.254;2023-02-04T04:05:02;4.20;84.40
51215;DHT22;63849;47.546;19.254;2023-02-04T04:07:28;4.20;84.70
51215;DHT22;63849;47.546;19.254;2023-02-04T04:09:54;4.10;85.10
51215;DHT22;63849;47.546;19.254;2023-02-04T04:12:20;4.20;85.10
51215;DHT22;63849;47.546;19.254;2023-02-04T04:14:45;4.20;85.20
51215;DHT22;63849;47.546;19.254;2023-02-04T04:17:11;4.20;85.20
51215;DHT22;63849;47.546;19.254;2023-02-04T04:19:37;4.20;85.40
51215;DHT22;63849;47.546;19.254;2023-02-04T04:22:02;4.20;85.30
51215;DHT22;63849;47.546;19.254;2023-02-04T04:24:28;4.20;85.50
51215;DHT22;63849;47.546;19.254;2023-02-04T04:26:54;4.20;85.70
51215;DHT22;63849;47.546;19.254;2023-02-04T04:29:20;4.20;85.80
51215;DHT22;63849;47.546;19.254;2023-02-04T04:31:45;4.20;85.80
51215;DHT22;63849;47.546;19.254;2023-02-04T04:34:11;4.20;85.60
51215;DHT22;63849;47.546;19.254;2023-02-04T04:36:37;4.20;85.90
51215;DHT22;63849;47.546;19.254;2023-02-04T04:39:03;4.10;86.00
51215;DHT22;63849;47.546;19.254;2023-02-04T04:41:29;4.10;85.80
51215;DHT22;63849;47.546;19.254;2023-02-04T04:43:54;4.20;86.00
51215;DHT22;63849;47.546;19.254;2023-02-04T04:46:20;4.30;85.80
51215;DHT22;63849;47.546;19.254;2023-02-04T04:48:46;4.30;85.80
51215;DHT22;63849;47.546;19.254;2023-02-04T04:51:11;4.30;85.90
51215;DHT22;63849;47.546;19.254;2023-02-04T04:53:37;4.30;85.80
51215;DHT22;63849;47.546;19.254;2023-02-04T04:56:03;4.30;85.70
51215;DHT22;63849;47.546;19.254;2023-02-04T04:58:29;4.30;85.50
51215;DHT22;63849;47.546;19.254;2023-02-04T05:00:54;4.20;85.50
51215;DHT22;63849;47.546;19.254;2023-02-04T05:03:20;4.20;85.40
51215;DHT22;63849;47.546;19.254;2023-02-04T05:05:46;4.20;84.90
51215;DHT22;63849;47.546;19.254;2023-02-04T05:08:11;4.30;84.50
51215;DHT22;63849;47.546;19.254;2023-02-04T05:10:42;4.30;84.20
51215;DHT22;63849;47.546;19.254;2023-02-04T05:13:08;4.30;84.10
51215;DHT22;63849;47.546;19.254;2023-02-04T05:15:34;4.30;83.80
51215;DHT22;63849;47.546;19.254;2023-02-04T05:18:00;4.40;83.10
51215;DHT22;63849;47.546;19.254;2023-02-04T05:20:26;4.40;83.60
51215;DHT22;63849;47.546;19.254;2023-02-04T05:22:52;4.40;83.40
51215;DHT22;63849;47.546;19.254;2023-02-04T05:25:18;4.50;82.50
51215;DHT22;63849;47.546;19.254;2023-02-04T05:27:43;4.40;83.00
51215;DHT22;63849;47.546;19.254;2023-02-04T05:30:10;4.50;82.50
51215;DHT22;63849;47.546;19.254;2023-02-04T05:32:37;4.50;81.90
51215;DHT22;63849;47.546;19.254;2023-02-04T05:35:03;4.50;82.00
51215;DHT22;63849;47.546;19.254;2023-02-04T05:37:29;4.50;82.30
51215;DHT22;63849;47.546;19.254;2023-02-04T05:39:56;4.60;82.20
51215;DHT22;63849;47.546;19.254;2023-02-04T05:42:21;4.50;82.20
51215;DHT22;63849;47.546;19.254;2023-02-04T05:44:47;4.40;82.70
51215;DHT22;63849;47.546;19.254;2023-02-04T05:47:13;4.40;82.50
51215;DHT22;63849;47.546;19.254;2023-02-04T05:49:39;4.50;82.50
51215;DHT22;63849;47.546;19.254;2023-02-04T05:52:05;4.40;82.70
51215;DHT22;63849;47.546;19.254;2023-02-04T05:54:31;4.40;82.50
51215;DHT22;63849;47.546;19.254;2023-02-04T05:56:57;4.40;82.70
51215;DHT22;63849;47.546;19.254;2023-02-04T05:59:23;4.40;82.60
51215;DHT22;63849;47.546;19.254;2023-02-04T06:01:48;4.40;82.40
51215;DHT22;63849;47.546;19.254;2023-02-04T06:04:14;4.40;82.20
51215;DHT22;63849;47.546;19.254;2023-02-04T06:06:41;4.40;81.40
51215;DHT22;63849;47.546;19.254;2023-02-04T06:09:07;4.30;81.20
51215;DHT22;63849;47.546;19.254;2023-02-04T06:11:33;4.30;80.40
51215;DHT22;63849;47.546;19.254;2023-02-04T06:13:59;4.30;80.10
51215;DHT22;63849;47.546;19.254;2023-02-04T06:16:25;4.20;80.10
51215;DHT22;63849;47.546;19.254;2023-02-04T06:18:50;4.20;80.40
51215;DHT22;63849;47.546;19.254;2023-02-04T06:21:16;4.20;80.20
51215;DHT22;63849;47.546;19.254;2023-02-04T06:23:42;4.00;81.00
51215;DHT22;63849;47.546;19.254;2023-02-04T06:26:08;4.10;79.60
51215;DHT22;63849;47.546;19.254;2023-02-04T06:28:34;4.00;80.10
51215;DHT22;63849;47.546;19.254;2023-02-04T06:30:59;4.00;80.00
51215;DHT22;63849;47.546;19.254;2023-02-04T06:33:25;4.00;79.90
51215;DHT22;63849;47.546;19.254;2023-02-04T06:35:52;3.90;80.10
51215;DHT22;63849;47.546;19.254;2023-02-04T06:38:18;3.80;80.10
51215;DHT22;63849;47.546;19.254;2023-02-04T06:40:44;3.80;80.80
51215;DHT22;63849;47.546;19.254;2023-02-04T06:43:14;3.70;80.30
51215;DHT22;63849;47.546;19.254;2023-02-04T06:45:40;3.60;80.40
51215;DHT22;63849;47.546;19.254;2023-02-04T07:00:58;3.60;79.60
51215;DHT22;63849;47.546;19.254;2023-02-04T07:03:24;3.70;78.80
51215;DHT22;63849;47.546;19.254;2023-02-04T07:05:50;3.60;78.20
51215;DHT22;63849;47.546;19.254;2023-02-04T07:08:17;3.60;78.70
51215;DHT22;63849;47.546;19.254;2023-02-04T07:10:43;3.50;77.70
51215;DHT22;63849;47.546;19.254;2023-02-04T07:13:08;3.70;78.10
51215;DHT22;63849;47.546;19.254;2023-02-04T07:15:34;3.70;77.70
51215;DHT22;63849;47.546;19.254;2023-02-04T07:18:00;3.50;77.50
51215;DHT22;63849;47.546;19.254;2023-02-04T07:20:26;3.50;77.40
51215;DHT22;63849;47.546;19.254;2023-02-04T07:22:51;3.50;78.20
51215;DHT22;63849;47.546;19.254;2023-02-04T07:25:17;3.40;78.80
51215;DHT22;63849;47.546;19.254;2023-02-04T07:27:43;3.50;78.30
51215;DHT22;63849;47.546;19.254;2023-02-04T07:30:09;3.40;77.70
51215;DHT22;63849;47.546;19.254;2023-02-04T07:32:35;3.50;77.50
51215;DHT22;63849;47.546;19.254;2023-02-04T07:35:01;3.50;77.20
51215;DHT22;63849;47.546;19.254;2023-02-04T07:37:27;3.30;77.70
51215;DHT22;63849;47.546;19.254;2023-02-04T07:39:52;3.20;77.50
51215;DHT22;63849;47.546;19.254;2023-02-04T07:42:18;3.20;77.20
51215;DHT22;63849;47.546;19.254;2023-02-04T07:44:44;3.10;77.40
51215;DHT22;63849;47.546;19.254;2023-02-04T07:47:10;3.10;77.10
51215;DHT22;63849;47.546;19.254;2023-02-04T08:04:55;2.80;77.50
51215;DHT22;63849;47.546;19.254;2023-02-04T08:07:21;3.60;75.30
51215;DHT22;63849;47.546;19.254;2023-02-04T08:09:47;3.70;74.60
51215;DHT22;63849;47.546;19.254;2023-02-04T08:12:12;3.70;73.80
51215;DHT22;63849;47.546;19.254;2023-02-04T08:14:38;3.50;74.00
51215;DHT22;63849;47.546;19.254;2023-02-04T08:17:04;3.40;74.80
51215;DHT22;63849;47.546;19.254;2023-02-04T08:19:29;3.50;74.50
51215;DHT22;63849;47.546;19.254;2023-02-04T08:21:55;3.40;74.30
51215;DHT22;63849;47.546;19.254;2023-02-04T08:24:21;3.30;74.10
51215;DHT22;63849;47.546;19.254;2023-02-04T08:26:46;3.50;73.70
51215;DHT22;63849;47.546;19.254;2023-02-04T08:29:12;3.30;74.20
51215;DHT22;63849;47.546;19.254;2023-02-04T08:31:39;3.50;74.10
51215;DHT22;63849;47.546;19.254;2023-02-04T08:34:05;3.40;72.90
51215;DHT22;63849;47.546;19.254;2023-02-04T08:36:31;3.30;73.40
51215;DHT22;63849;47.546;19.254;2023-02-04T08:38:57;3.20;74.70
51215;DHT22;63849;47.546;19.254;2023-02-04T08:41:22;3.10;74.40
51215;DHT22;63849;47.546;19.254;2023-02-04T08:43:48;3.20;73.80
51215;DHT22;63849;47.546;19.254;2023-02-04T08:46:14;3.20;73.80
51215;DHT22;63849;47.546;19.254;2023-02-04T08:48:39;3.20;74.00
51215;DHT22;63849;47.546;19.254;2023-02-04T08:51:05;3.30;73.00
51215;DHT22;63849;47.546;19.254;2023-02-04T08:53:31;3.30;73.10
51215;DHT22;63849;47.546;19.254;2023-02-04T08:55:57;3.20;73.50
51215;DHT22;63849;47.546;19.254;2023-02-04T08:58:22;3.20;72.30
51215;DHT22;63849;47.546;19.254;2023-02-04T09:00:48;3.20;72.60
51215;DHT22;63849;47.546;19.254;2023-02-04T09:03:14;3.10;72.20
51215;DHT22;63849;47.546;19.254;2023-02-04T09:05:40;3.00;72.30
51215;DHT22;63849;47.546;19.254;2023-02-04T09:08:05;3.10;72.50
51215;DHT22;63849;47.546;19.254;2023-02-04T09:10:31;3.00;72.60
51215;DHT22;63849;47.546;19.254;2023-02-04T09:12:57;3.00;72.20
51215;DHT22;63849;47.546;19.254;2023-02-04T09:15:23;3.20;72.40
51215;DHT22;63849;47.546;19.254;2023-02-04T09:17:52;3.30;70.40
51215;DHT22;63849;47.546;19.254;2023-02-04T09:20:20;3.40;68.20
51215;DHT22;63849;47.546;19.254;2023-02-04T09:22:46;3.50;69.40
51215;DHT22;63849;47.546;19.254;2023-02-04T09:25:14;3.80;67.10
51215;DHT22;63849;47.546;19.254;2023-02-04T09:27:40;3.80;66.50
51215;DHT22;63849;47.546;19.254;2023-02-04T09:30:06;4.10;66.00
51215;DHT22;63849;47.546;19.254;2023-02-04T09:32:32;4.30;64.70
51215;DHT22;63849;47.546;19.254;2023-02-04T09:34:57;4.60;64.40
51215;DHT22;63849;47.546;19.254;2023-02-04T09:37:23;4.80;63.00
51215;DHT22;63849;47.546;19.254;2023-02-04T09:39:51;4.60;61.90
51215;DHT22;63849;47.546;19.254;2023-02-04T09:42:17;4.70;63.00
51215;DHT22;63849;47.546;19.254;2023-02-04T09:44:43;4.50;60.70
51215;DHT22;63849;47.546;19.254;2023-02-04T09:47:11;4.50;60.20
51215;DHT22;63849;47.546;19.254;2023-02-04T09:49:43;4.50;60.50
51215;DHT22;63849;47.546;19.254;2023-02-04T09:52:13;4.30;59.00
51215;DHT22;63849;47.546;19.254;2023-02-04T09:54:40;4.20;58.30
51215;DHT22;63849;47.546;19.254;2023-02-04T09:57:16;4.00;59.00
51215;DHT22;63849;47.546;19.254;2023-02-04T09:59:43;3.90;59.90
51215;DHT22;63849;47.546;19.254;2023-02-04T10:02:25;3.80;59.10
51215;DHT22;63849;47.546;19.254;2023-02-04T10:04:54;3.80;59.30
51215;DHT22;63849;47.546;19.254;2023-02-04T10:07:22;3.70;59.10
51215;DHT22;63849;47.546;19.254;2023-02-04T10:09:53;3.60;58.50
51215;DHT22;63849;47.546;19.254;2023-02-04T10:12:19;3.60;58.10
51215;DHT22;63849;47.546;19.254;2023-02-04T10:14:46;3.60;58.80
51215;DHT22;63849;47.546;19.254;2023-02-04T10:17:14;3.70;58.30
51215;DHT22;63849;47.546;19.254;2023-02-04T10:19:42;3.70;57.70
51215;DHT22;63849;47.546;19.254;2023-02-04T10:22:25;3.80;56.90
51215;DHT22;63849;47.546;19.254;2023-02-04T10:24:51;3.80;56.90
51215;DHT22;63849;47.546;19.254;2023-02-04T10:27:17;3.90;56.80
51215;DHT22;63849;47.546;19.254;2023-02-04T10:29:54;4.00;57.60
51215;DHT22;63849;47.546;19.254;2023-02-04T10:32:31;4.00;56.60
51215;DHT22;63849;47.546;19.254;2023-02-04T10:35:00;4.10;57.00
51215;DHT22;63849;47.546;19.254;2023-02-04T10:37:26;4.10;55.70
51215;DHT22;63849;47.546;19.254;2023-02-04T10:39:52;4.20;55.50
51215;DHT22;63849;47.546;19.254;2023-02-04T10:42:36;4.20;54.40
51215;DHT22;63849;47.546;19.254;2023-02-04T10:45:01;4.30;53.30
51215;DHT22;63849;47.546;19.254;2023-02-04T10:47:29;4.40;54.10
51215;DHT22;63849;47.546;19.254;2023-02-04T10:50:06;4.30;53.70
51215;DHT22;63849;47.546;19.254;2023-02-04T10:52:39;4.50;54.30
51215;DHT22;63849;47.546;19.254;2023-02-04T10:55:10;4.40;54.30
51215;DHT22;63849;47.546;19.254;2023-02-04T10:57:38;4.30;53.00
51215;DHT22;63849;47.546;19.254;2023-02-04T11:00:19;4.30;51.10
51215;DHT22;63849;47.546;19.254;2023-02-04T11:05:17;4.30;50.40
51215;DHT22;63849;47.546;19.254;2023-02-04T11:07:46;4.30;50.30
51215;DHT22;63849;47.546;19.254;2023-02-04T11:10:24;4.30;49.70
51215;DHT22;63849;47.546;19.254;2023-02-04T11:20:39;4.20;50.30
51215;DHT22;63849;47.546;19.254;2023-02-04T11:26:04;4.20;49.80
51215;DHT22;63849;47.546;19.254;2023-02-04T11:33:46;4.20;48.50
51215;DHT22;63849;47.546;19.254;2023-02-04T11:36:13;4.20;50.50
51215;DHT22;63849;47.546;19.254;2023-02-04T11:38:44;4.20;49.10
51215;DHT22;63849;47.546;19.254;2023-02-04T11:41:27;4.20;48.60
51215;DHT22;63849;47.546;19.254;2023-02-04T11:43:54;4.30;49.90
51215;DHT22;63849;47.546;19.254;2023-02-04T11:46:22;4.30;51.40
51215;DHT22;63849;47.546;19.254;2023-02-04T11:48:53;4.00;50.50
51215;DHT22;63849;47.546;19.254;2023-02-04T11:51:22;4.20;53.00
51215;DHT22;63849;47.546;19.254;2023-02-04T11:53:51;4.20;51.40
51215;DHT22;63849;47.546;19.254;2023-02-04T11:56:21;4.30;53.20
51215;DHT22;63849;47.546;19.254;2023-02-04T11:58:48;4.30;51.30
51215;DHT22;63849;47.546;19.254;2023-02-04T12:01:31;4.20;51.50
51215;DHT22;63849;47.546;19.254;2023-02-04T12:03:59;4.10;50.90
51215;DHT22;63849;47.546;19.254;2023-02-04T12:06:31;4.00;49.60
51215;DHT22;63849;47.546;19.254;2023-02-04T12:11:39;4.30;50.00
51215;DHT22;63849;47.546;19.254;2023-02-04T12:14:17;4.20;50.70
51215;DHT22;63849;47.546;19.254;2023-02-04T12:16:47;4.20;50.20
51215;DHT22;63849;47.546;19.254;2023-02-04T12:19:13;4.30;49.10
51215;DHT22;63849;47.546;19.254;2023-02-04T12:21:40;4.30;48.20
51215;DHT22;63849;47.546;19.254;2023-02-04T12:24:06;4.30;49.80
51215;DHT22;63849;47.546;19.254;2023-02-04T12:26:32;4.30;50.20
51215;DHT22;63849;47.546;19.254;2023-02-04T12:28:58;4.30;49.90
51215;DHT22;63849;47.546;19.254;2023-02-04T12:31:32;4.20;48.10
51215;DHT22;63849;47.546;19.254;2023-02-04T12:33:58;4.30;50.50
51215;DHT22;63849;47.546;19.254;2023-02-04T12:36:25;4.30;47.50
51215;DHT22;63849;47.546;19.254;2023-02-04T12:38:52;4.30;47.30
51215;DHT22;63849;47.546;19.254;2023-02-04T12:41:18;4.20;45.40
51215;DHT22;63849;47.546;19.254;2023-02-04T12:43:45;4.30;49.10
51215;DHT22;63849;47.546;19.254;2023-02-04T12:46:11;4.30;48.60
51215;DHT22;63849;47.546;19.254;2023-02-04T12:48:37;4.40;47.90
51215;DHT22;63849;47.546;19.254;2023-02-04T12:51:06;4.30;44.80
51215;DHT22;63849;47.546;19.254;2023-02-04T12:53:32;4.10;45.10
51215;DHT22;63849;47.546;19.254;2023-02-04T12:55:58;3.80;44.00
51215;DHT22;63849;47.546;19.254;2023-02-04T12:58:23;3.70;45.10
51215;DHT22;63849;47.546;19.254;2023-02-04T13:00:50;3.70;44.10
51215;DHT22;63849;47.546;19.254;2023-02-04T13:03:15;3.60;44.50
51215;DHT22;63849;47.546;19.254;2023-02-04T13:05:41;3.80;45.70
51215;DHT22;63849;47.546;19.254;2023-02-04T13:08:07;3.80;44.80
51215;DHT22;63849;47.546;19.254;2023-02-04T13:10:33;3.60;46.90
51215;DHT22;63849;47.546;19.254;2023-02-04T13:12:59;3.60;47.30
51215;DHT22;63849;47.546;19.254;2023-02-04T13:15:25;3.70;48.60
51215;DHT22;63849;47.546;19.254;2023-02-04T13:17:51;3.70;46.50
51215;DHT22;63849;47.546;19.254;2023-02-04T13:20:17;3.70;48.30
51215;DHT22;63849;47.546;19.254;2023-02-04T13:22:43;3.60;49.20
51215;DHT22;63849;47.546;19.254;2023-02-04T13:25:09;3.70;48.80
51215;DHT22;63849;47.546;19.254;2023-02-04T13:27:37;3.30;46.20
51215;DHT22;63849;47.546;19.254;2023-02-04T13:30:04;3.20;44.10
51215;DHT22;63849;47.546;19.254;2023-02-04T13:32:30;3.20;43.80
51215;DHT22;63849;47.546;19.254;2023-02-04T13:34:55;3.10;42.80
51215;DHT22;63849;47.546;19.254;2023-02-04T13:37:21;3.10;43.20
51215;DHT22;63849;47.546;19.254;2023-02-04T13:39:47;2.90;42.30
51215;DHT22;63849;47.546;19.254;2023-02-04T13:42:13;3.00;43.60
51215;DHT22;63849;47.546;19.254;2023-02-04T13:44:38;2.80;41.10
51215;DHT22;63849;47.546;19.254;2023-02-04T13:47:04;2.90;42.40
51215;DHT22;63849;47.546;19.254;2023-02-04T13:49:30;2.80;41.60
51215;DHT22;63849;47.546;19.254;2023-02-04T13:51:55;2.80;43.70
51215;DHT22;63849;47.546;19.254;2023-02-04T13:54:21;2.70;40.80
51215;DHT22;63849;47.546;19.254;2023-02-04T13:56:47;2.70;41.80
51215;DHT22;63849;47.546;19.254;2023-02-04T13:59:13;2.80;43.80
51215;DHT22;63849;47.546;19.254;2023-02-04T14:01:38;2.80;43.70
51215;DHT22;63849;47.546;19.254;2023-02-04T14:04:04;2.80;43.50
51215;DHT22;63849;47.546;19.254;2023-02-04T14:06:30;2.80;44.90
51215;DHT22;63849;47.546;19.254;2023-02-04T14:09:03;2.80;44.10
51215;DHT22;63849;47.546;19.254;2023-02-04T14:11:29;2.70;46.50
51215;DHT22;63849;47.546;19.254;2023-02-04T14:13:55;2.60;48.40
51215;DHT22;63849;47.546;19.254;2023-02-04T14:16:21;2.60;46.30
51215;DHT22;63849;47.546;19.254;2023-02-04T14:18:46;2.60;45.10
51215;DHT22;63849;47.546;19.254;2023-02-04T14:21:12;2.50;47.40
51215;DHT22;63849;47.546;19.254;2023-02-04T14:23:38;2.50;47.10
51215;DHT22;63849;47.546;19.254;2023-02-04T14:26:04;2.50;48.70
51215;DHT22;63849;47.546;19.254;2023-02-04T14:28:29;2.40;50.20
51215;DHT22;63849;47.546;19.254;2023-02-04T14:30:55;2.50;49.50
51215;DHT22;63849;47.546;19.254;2023-02-04T14:33:21;2.40;50.20
51215;DHT22;63849;47.546;19.254;2023-02-04T14:35:47;2.30;49.40
51215;DHT22;63849;47.546;19.254;2023-02-04T14:38:13;2.30;50.40
51215;DHT22;63849;47.546;19.254;2023-02-04T14:40:44;2.30;49.70
51215;DHT22;63849;47.546;19.254;2023-02-04T14:43:10;2.20;49.70
51215;DHT22;63849;47.546;19.254;2023-02-04T14:45:37;2.10;49.20
51215;DHT22;63849;47.546;19.254;2023-02-04T14:48:03;2.00;49.90
51215;DHT22;63849;47.546;19.254;2023-02-04T14:50:29;1.90;50.30
51215;DHT22;63849;47.546;19.254;2023-02-04T14:52:55;1.80;49.80
51215;DHT22;63849;47.546;19.254;2023-02-04T14:55:25;1.80;49.10
51215;DHT22;63849;47.546;19.254;2023-02-04T14:57:51;1.80;49.00
51215;DHT22;63849;47.546;19.254;2023-02-04T15:00:19;1.80;50.70
51215;DHT22;63849;47.546;19.254;2023-02-04T15:02:45;1.70;50.80
51215;DHT22;63849;47.546;19.254;2023-02-04T15:05:11;1.70;51.70
51215;DHT22;63849;47.546;19.254;2023-02-04T15:07:37;1.60;52.20
51215;DHT22;63849;47.546;19.254;2023-02-04T15:10:04;1.50;52.20
51215;DHT22;63849;47.546;19.254;2023-02-04T15:12:29;1.50;51.80
51215;DHT22;63849;47.546;19.254;2023-02-04T15:14:55;1.50;51.70
51215;DHT22;63849;47.546;19.254;2023-02-04T15:17:21;1.40;52.50
51215;DHT22;63849;47.546;19.254;2023-02-04T15:19:47;1.30;53.20
51215;DHT22;63849;47.546;19.254;2023-02-04T15:22:12;1.30;53.20
51215;DHT22;63849;47.546;19.254;2023-02-04T15:24:38;1.30;53.80
51215;DHT22;63849;47.546;19.254;2023-02-04T15:27:04;1.20;54.30
51215;DHT22;63849;47.546;19.254;2023-02-04T15:29:30;1.10;54.00
51215;DHT22;63849;47.546;19.254;2023-02-04T15:31:57;1.20;54.80
51215;DHT22;63849;47.546;19.254;2023-02-04T15:34:23;1.10;54.30
51215;DHT22;63849;47.546;19.254;2023-02-04T15:36:48;0.90;53.80
51215;DHT22;63849;47.546;19.254;2023-02-04T15:39:14;0.90;53.70
51215;DHT22;63849;47.546;19.254;2023-02-04T15:41:40;0.80;54.50
51215;DHT22;63849;47.546;19.254;2023-02-04T15:44:06;0.90;53.20
51215;DHT22;63849;47.546;19.254;2023-02-04T15:46:32;0.90;53.80
51215;DHT22;63849;47.546;19.254;2023-02-04T15:49:00;0.80;53.70
51215;DHT22;63849;47.546;19.254;2023-02-04T15:51:26;0.80;53.70
51215;DHT22;63849;47.546;19.254;2023-02-04T15:53:52;0.70;53.60
51215;DHT22;63849;47.546;19.254;2023-02-04T15:56:19;0.80;52.50
51215;DHT22;63849;47.546;19.254;2023-02-04T15:58:45;0.70;53.00
51215;DHT22;63849;47.546;19.254;2023-02-04T16:01:11;0.60;54.20
51215;DHT22;63849;47.546;19.254;2023-02-04T16:03:36;0.50;55.30
51215;DHT22;63849;47.546;19.254;2023-02-04T16:06:02;0.50;55.00
51215;DHT22;63849;47.546;19.254;2023-02-04T16:08:29;0.50;54.60
51215;DHT22;63849;47.546;19.254;2023-02-04T16:10:55;0.50;55.40
51215;DHT22;63849;47.546;19.254;2023-02-04T16:13:21;0.40;55.90
51215;DHT22;63849;47.546;19.254;2023-02-04T16:15:46;0.30;55.50
51215;DHT22;63849;47.546;19.254;2023-02-04T16:18:12;0.30;55.30